<?xml version="1.0" encoding="UTF-8"?>
<gpx xmlns="http://www.topografix.com/GPX/1/1" xmlns:xsi="http://www.w3.org/2001/XMLSchema-instance" version="1.1" xsi:schemaLocation="http://www.topografix.com/GPX/1/1 http://www.topografix.com/GPX/1/1/gpx.xsd">
  <metadata>
    <name>Box End Triathlon I 2026 - Aquabike Standard</name>
  </metadata>
  <trk>
    <name>Box End Triathlon I 2026 - Aquabike Standard</name>
    <trkseg>
      <trkpt lat="52.121788" lon="-0.523223">
        <ele>31.260784</ele>
        <time>2026-05-24T07:30:00.000Z</time>
      </trkpt>
      <trkpt lat="52.121455" lon="-0.523162">
        <ele>31.260783</ele>
        <time>2026-05-24T07:30:04.000Z</time>
      </trkpt>
      <trkpt lat="52.121098" lon="-0.523046">
        <ele>31.260786</ele>
        <time>2026-05-24T07:30:08.000Z</time>
      </trkpt>
      <trkpt lat="52.120353" lon="-0.52261">
        <ele>31.747249</ele>
        <time>2026-05-24T07:30:17.000Z</time>
      </trkpt>
      <trkpt lat="52.120046" lon="-0.52233">
        <ele>32.039283</ele>
        <time>2026-05-24T07:30:21.000Z</time>
      </trkpt>
      <trkpt lat="52.119108" lon="-0.521105">
        <ele>32.339711</ele>
        <time>2026-05-24T07:30:34.000Z</time>
      </trkpt>
      <trkpt lat="52.118572" lon="-0.52043">
        <ele>31.556209</ele>
        <time>2026-05-24T07:30:42.000Z</time>
      </trkpt>
      <trkpt lat="52.117994" lon="-0.519612">
        <ele>30.660872</ele>
        <time>2026-05-24T07:30:51.000Z</time>
      </trkpt>
      <trkpt lat="52.117387" lon="-0.518739">
        <ele>29.925423</ele>
        <time>2026-05-24T07:31:00.000Z</time>
      </trkpt>
      <trkpt lat="52.117349" lon="-0.518644">
        <ele>29.857537</ele>
        <time>2026-05-24T07:31:01.000Z</time>
      </trkpt>
      <trkpt lat="52.117395" lon="-0.518501">
        <ele>29.760084</ele>
        <time>2026-05-24T07:31:02.000Z</time>
      </trkpt>
      <trkpt lat="52.117402" lon="-0.518309">
        <ele>29.662423</ele>
        <time>2026-05-24T07:31:03.000Z</time>
      </trkpt>
      <trkpt lat="52.117385" lon="-0.518242">
        <ele>29.612923</ele>
        <time>2026-05-24T07:31:03.000Z</time>
      </trkpt>
      <trkpt lat="52.118087" lon="-0.517092">
        <ele>28.770368</ele>
        <time>2026-05-24T07:31:14.000Z</time>
      </trkpt>
      <trkpt lat="52.11943" lon="-0.51504">
        <ele>27.613354</ele>
        <time>2026-05-24T07:31:34.000Z</time>
      </trkpt>
      <trkpt lat="52.120272" lon="-0.513718">
        <ele>27.318418</ele>
        <time>2026-05-24T07:31:47.000Z</time>
      </trkpt>
      <trkpt lat="52.120538" lon="-0.513231">
        <ele>27.281642</ele>
        <time>2026-05-24T07:31:51.000Z</time>
      </trkpt>
      <trkpt lat="52.120777" lon="-0.513049">
        <ele>27.324349</ele>
        <time>2026-05-24T07:31:54.000Z</time>
      </trkpt>
      <trkpt lat="52.120846" lon="-0.513053">
        <ele>27.337108</ele>
        <time>2026-05-24T07:31:55.000Z</time>
      </trkpt>
      <trkpt lat="52.121132" lon="-0.513244">
        <ele>27.388832</ele>
        <time>2026-05-24T07:31:58.000Z</time>
      </trkpt>
      <trkpt lat="52.121961" lon="-0.514326">
        <ele>27.583088</ele>
        <time>2026-05-24T07:32:10.000Z</time>
      </trkpt>
      <trkpt lat="52.122417" lon="-0.514788">
        <ele>27.807546</ele>
        <time>2026-05-24T07:32:16.000Z</time>
      </trkpt>
      <trkpt lat="52.122998" lon="-0.515245">
        <ele>28.069258</ele>
        <time>2026-05-24T07:32:23.000Z</time>
      </trkpt>
      <trkpt lat="52.123651" lon="-0.515657">
        <ele>28.340484</ele>
        <time>2026-05-24T07:32:31.000Z</time>
      </trkpt>
      <trkpt lat="52.12458" lon="-0.516141">
        <ele>28.599989</ele>
        <time>2026-05-24T07:32:42.000Z</time>
      </trkpt>
      <trkpt lat="52.126773" lon="-0.5172">
        <ele>29.106703</ele>
        <time>2026-05-24T07:33:07.000Z</time>
      </trkpt>
      <trkpt lat="52.126799" lon="-0.517195">
        <ele>29.110362</ele>
        <time>2026-05-24T07:33:07.000Z</time>
      </trkpt>
      <trkpt lat="52.126804" lon="-0.517207">
        <ele>29.111183</ele>
        <time>2026-05-24T07:33:07.000Z</time>
      </trkpt>
      <trkpt lat="52.128547" lon="-0.517993">
        <ele>29.06155</ele>
        <time>2026-05-24T07:33:27.000Z</time>
      </trkpt>
      <trkpt lat="52.128712" lon="-0.518164">
        <ele>29.048393</ele>
        <time>2026-05-24T07:33:29.000Z</time>
      </trkpt>
      <trkpt lat="52.128791" lon="-0.518371">
        <ele>29.032985</ele>
        <time>2026-05-24T07:33:31.000Z</time>
      </trkpt>
      <trkpt lat="52.128844" lon="-0.518609">
        <ele>29.017613</ele>
        <time>2026-05-24T07:33:33.000Z</time>
      </trkpt>
      <trkpt lat="52.128953" lon="-0.518737">
        <ele>29.002284</ele>
        <time>2026-05-24T07:33:34.000Z</time>
      </trkpt>
      <trkpt lat="52.129027" lon="-0.518764">
        <ele>28.994437</ele>
        <time>2026-05-24T07:33:35.000Z</time>
      </trkpt>
      <trkpt lat="52.129179" lon="-0.518686">
        <ele>28.979165</ele>
        <time>2026-05-24T07:33:37.000Z</time>
      </trkpt>
      <trkpt lat="52.129628" lon="-0.518682">
        <ele>28.93239</ele>
        <time>2026-05-24T07:33:42.000Z</time>
      </trkpt>
      <trkpt lat="52.131293" lon="-0.519608">
        <ele>28.784969</ele>
        <time>2026-05-24T07:34:02.000Z</time>
      </trkpt>
      <trkpt lat="52.134252" lon="-0.521459">
        <ele>28.599385</ele>
        <time>2026-05-24T07:34:37.000Z</time>
      </trkpt>
      <trkpt lat="52.134721" lon="-0.521725">
        <ele>28.622679</ele>
        <time>2026-05-24T07:34:43.000Z</time>
      </trkpt>
      <trkpt lat="52.135955" lon="-0.522156">
        <ele>28.880568</ele>
        <time>2026-05-24T07:34:57.000Z</time>
      </trkpt>
      <trkpt lat="52.136552" lon="-0.522296">
        <ele>29.094503</ele>
        <time>2026-05-24T07:35:04.000Z</time>
      </trkpt>
      <trkpt lat="52.136929" lon="-0.522332">
        <ele>29.229243</ele>
        <time>2026-05-24T07:35:08.000Z</time>
      </trkpt>
      <trkpt lat="52.137691" lon="-0.522335">
        <ele>29.411957</ele>
        <time>2026-05-24T07:35:16.000Z</time>
      </trkpt>
      <trkpt lat="52.138551" lon="-0.522256">
        <ele>29.600469</ele>
        <time>2026-05-24T07:35:26.000Z</time>
      </trkpt>
      <trkpt lat="52.140143" lon="-0.521997">
        <ele>29.464673</ele>
        <time>2026-05-24T07:35:44.000Z</time>
      </trkpt>
      <trkpt lat="52.141977" lon="-0.521794">
        <ele>29.260924</ele>
        <time>2026-05-24T07:36:04.000Z</time>
      </trkpt>
      <trkpt lat="52.1421" lon="-0.521869">
        <ele>29.248752</ele>
        <time>2026-05-24T07:36:05.000Z</time>
      </trkpt>
      <trkpt lat="52.142302" lon="-0.521971">
        <ele>29.22985</ele>
        <time>2026-05-24T07:36:07.000Z</time>
      </trkpt>
      <trkpt lat="52.142465" lon="-0.522107">
        <ele>29.234656</ele>
        <time>2026-05-24T07:36:09.000Z</time>
      </trkpt>
      <trkpt lat="52.142534" lon="-0.522256">
        <ele>29.293438</ele>
        <time>2026-05-24T07:36:10.000Z</time>
      </trkpt>
      <trkpt lat="52.142593" lon="-0.522761">
        <ele>29.460626</ele>
        <time>2026-05-24T07:36:14.000Z</time>
      </trkpt>
      <trkpt lat="52.142655" lon="-0.522964">
        <ele>29.536674</ele>
        <time>2026-05-24T07:36:16.000Z</time>
      </trkpt>
      <trkpt lat="52.142621" lon="-0.523494">
        <ele>29.706742</ele>
        <time>2026-05-24T07:36:20.000Z</time>
      </trkpt>
      <trkpt lat="52.142582" lon="-0.523847">
        <ele>29.825878</ele>
        <time>2026-05-24T07:36:22.000Z</time>
      </trkpt>
      <trkpt lat="52.142345" lon="-0.525772">
        <ele>31.936611</ele>
        <time>2026-05-24T07:36:35.000Z</time>
      </trkpt>
      <trkpt lat="52.142192" lon="-0.527006">
        <ele>34.428051</ele>
        <time>2026-05-24T07:36:44.000Z</time>
      </trkpt>
      <trkpt lat="52.142082" lon="-0.527852">
        <ele>36.241347</ele>
        <time>2026-05-24T07:36:50.000Z</time>
      </trkpt>
      <trkpt lat="52.141946" lon="-0.528704">
        <ele>38.882658</ele>
        <time>2026-05-24T07:36:56.000Z</time>
      </trkpt>
      <trkpt lat="52.14178" lon="-0.529728">
        <ele>42.085945</ele>
        <time>2026-05-24T07:37:03.000Z</time>
      </trkpt>
      <trkpt lat="52.141755" lon="-0.529848">
        <ele>42.455781</ele>
        <time>2026-05-24T07:37:04.000Z</time>
      </trkpt>
      <trkpt lat="52.141637" lon="-0.53047">
        <ele>44.451559</ele>
        <time>2026-05-24T07:37:08.000Z</time>
      </trkpt>
      <trkpt lat="52.141317" lon="-0.532037">
        <ele>47.80525</ele>
        <time>2026-05-24T07:37:19.000Z</time>
      </trkpt>
      <trkpt lat="52.141019" lon="-0.533312">
        <ele>50.493988</ele>
        <time>2026-05-24T07:37:28.000Z</time>
      </trkpt>
      <trkpt lat="52.140518" lon="-0.535234">
        <ele>50.980466</ele>
        <time>2026-05-24T07:37:42.000Z</time>
      </trkpt>
      <trkpt lat="52.140349" lon="-0.53607">
        <ele>51.149466</ele>
        <time>2026-05-24T07:37:48.000Z</time>
      </trkpt>
      <trkpt lat="52.140308" lon="-0.536217">
        <ele>50.933325</ele>
        <time>2026-05-24T07:37:49.000Z</time>
      </trkpt>
      <trkpt lat="52.140143" lon="-0.537135">
        <ele>49.513037</ele>
        <time>2026-05-24T07:37:56.000Z</time>
      </trkpt>
      <trkpt lat="52.140011" lon="-0.538314">
        <ele>47.748854</ele>
        <time>2026-05-24T07:38:04.000Z</time>
      </trkpt>
      <trkpt lat="52.139939" lon="-0.539058">
        <ele>46.48454</ele>
        <time>2026-05-24T07:38:09.000Z</time>
      </trkpt>
      <trkpt lat="52.139907" lon="-0.539728">
        <ele>44.806404</ele>
        <time>2026-05-24T07:38:14.000Z</time>
      </trkpt>
      <trkpt lat="52.139904" lon="-0.539808">
        <ele>44.637486</ele>
        <time>2026-05-24T07:38:15.000Z</time>
      </trkpt>
      <trkpt lat="52.139896" lon="-0.539842">
        <ele>44.525931</ele>
        <time>2026-05-24T07:38:15.000Z</time>
      </trkpt>
      <trkpt lat="52.139885" lon="-0.54089">
        <ele>41.958526</ele>
        <time>2026-05-24T07:38:22.000Z</time>
      </trkpt>
      <trkpt lat="52.139908" lon="-0.542005">
        <ele>39.607774</ele>
        <time>2026-05-24T07:38:30.000Z</time>
      </trkpt>
      <trkpt lat="52.139994" lon="-0.543028">
        <ele>39.715151</ele>
        <time>2026-05-24T07:38:37.000Z</time>
      </trkpt>
      <trkpt lat="52.140152" lon="-0.543892">
        <ele>39.807767</ele>
        <time>2026-05-24T07:38:43.000Z</time>
      </trkpt>
      <trkpt lat="52.140296" lon="-0.544357">
        <ele>39.862049</ele>
        <time>2026-05-24T07:38:47.000Z</time>
      </trkpt>
      <trkpt lat="52.140445" lon="-0.544723">
        <ele>40.061525</ele>
        <time>2026-05-24T07:38:50.000Z</time>
      </trkpt>
      <trkpt lat="52.140672" lon="-0.545084">
        <ele>40.81948</ele>
        <time>2026-05-24T07:38:54.000Z</time>
      </trkpt>
      <trkpt lat="52.140677" lon="-0.545176">
        <ele>40.96184</ele>
        <time>2026-05-24T07:38:55.000Z</time>
      </trkpt>
      <trkpt lat="52.140698" lon="-0.545273">
        <ele>41.12445</ele>
        <time>2026-05-24T07:38:56.000Z</time>
      </trkpt>
      <trkpt lat="52.140762" lon="-0.545334">
        <ele>41.291832</ele>
        <time>2026-05-24T07:38:57.000Z</time>
      </trkpt>
      <trkpt lat="52.140563" lon="-0.546536">
        <ele>43.041917</ele>
        <time>2026-05-24T07:39:05.000Z</time>
      </trkpt>
      <trkpt lat="52.140452" lon="-0.546997">
        <ele>43.758729</ele>
        <time>2026-05-24T07:39:08.000Z</time>
      </trkpt>
      <trkpt lat="52.140357" lon="-0.547305">
        <ele>44.086401</ele>
        <time>2026-05-24T07:39:10.000Z</time>
      </trkpt>
      <trkpt lat="52.14002" lon="-0.548204">
        <ele>44.22314</ele>
        <time>2026-05-24T07:39:17.000Z</time>
      </trkpt>
      <trkpt lat="52.139723" lon="-0.548847">
        <ele>44.32731</ele>
        <time>2026-05-24T07:39:22.000Z</time>
      </trkpt>
      <trkpt lat="52.139441" lon="-0.549347">
        <ele>44.413941</ele>
        <time>2026-05-24T07:39:27.000Z</time>
      </trkpt>
      <trkpt lat="52.139174" lon="-0.549775">
        <ele>44.30168</ele>
        <time>2026-05-24T07:39:31.000Z</time>
      </trkpt>
      <trkpt lat="52.137397" lon="-0.552314">
        <ele>42.775116</ele>
        <time>2026-05-24T07:39:57.000Z</time>
      </trkpt>
      <trkpt lat="52.137103" lon="-0.552677">
        <ele>42.596559</ele>
        <time>2026-05-24T07:40:01.000Z</time>
      </trkpt>
      <trkpt lat="52.135203" lon="-0.555138">
        <ele>42.053507</ele>
        <time>2026-05-24T07:40:28.000Z</time>
      </trkpt>
      <trkpt lat="52.134501" lon="-0.556019">
        <ele>42.341391</ele>
        <time>2026-05-24T07:40:38.000Z</time>
      </trkpt>
      <trkpt lat="52.132589" lon="-0.558259">
        <ele>43.236341</ele>
        <time>2026-05-24T07:41:04.000Z</time>
      </trkpt>
      <trkpt lat="52.130731" lon="-0.56038">
        <ele>44.462062</ele>
        <time>2026-05-24T07:41:29.000Z</time>
      </trkpt>
      <trkpt lat="52.130215" lon="-0.560972">
        <ele>45.221952</ele>
        <time>2026-05-24T07:41:36.000Z</time>
      </trkpt>
      <trkpt lat="52.129872" lon="-0.561444">
        <ele>45.779209</ele>
        <time>2026-05-24T07:41:41.000Z</time>
      </trkpt>
      <trkpt lat="52.129784" lon="-0.561586">
        <ele>45.926461</ele>
        <time>2026-05-24T07:41:42.000Z</time>
      </trkpt>
      <trkpt lat="52.129474" lon="-0.562114">
        <ele>46.483056</ele>
        <time>2026-05-24T07:41:47.000Z</time>
      </trkpt>
      <trkpt lat="52.129104" lon="-0.562883">
        <ele>47.930792</ele>
        <time>2026-05-24T07:41:54.000Z</time>
      </trkpt>
      <trkpt lat="52.128835" lon="-0.563549">
        <ele>49.161573</ele>
        <time>2026-05-24T07:41:59.000Z</time>
      </trkpt>
      <trkpt lat="52.128733" lon="-0.563821">
        <ele>49.637644</ele>
        <time>2026-05-24T07:42:01.000Z</time>
      </trkpt>
      <trkpt lat="52.128493" lon="-0.564581">
        <ele>50.984075</ele>
        <time>2026-05-24T07:42:07.000Z</time>
      </trkpt>
      <trkpt lat="52.12756" lon="-0.567855">
        <ele>57.997532</ele>
        <time>2026-05-24T07:42:32.000Z</time>
      </trkpt>
      <trkpt lat="52.127556" lon="-0.567873">
        <ele>58.028539</ele>
        <time>2026-05-24T07:42:32.000Z</time>
      </trkpt>
      <trkpt lat="52.127539" lon="-0.567905">
        <ele>58.104716</ele>
        <time>2026-05-24T07:42:32.000Z</time>
      </trkpt>
      <trkpt lat="52.126959" lon="-0.569848">
        <ele>61.658989</ele>
        <time>2026-05-24T07:42:47.000Z</time>
      </trkpt>
      <trkpt lat="52.125737" lon="-0.573669">
        <ele>64.880494</ele>
        <time>2026-05-24T07:43:16.000Z</time>
      </trkpt>
      <trkpt lat="52.125598" lon="-0.574065">
        <ele>64.816513</ele>
        <time>2026-05-24T07:43:19.000Z</time>
      </trkpt>
      <trkpt lat="52.125494" lon="-0.574422">
        <ele>64.759557</ele>
        <time>2026-05-24T07:43:22.000Z</time>
      </trkpt>
      <trkpt lat="52.12204" lon="-0.570451">
        <ele>53.532265</ele>
        <time>2026-05-24T07:44:09.000Z</time>
      </trkpt>
      <trkpt lat="52.12181" lon="-0.569952">
        <ele>53.224914</ele>
        <time>2026-05-24T07:44:13.000Z</time>
      </trkpt>
      <trkpt lat="52.121619" lon="-0.569468">
        <ele>52.930945</ele>
        <time>2026-05-24T07:44:17.000Z</time>
      </trkpt>
      <trkpt lat="52.121445" lon="-0.569075">
        <ele>52.693567</ele>
        <time>2026-05-24T07:44:20.000Z</time>
      </trkpt>
      <trkpt lat="52.121252" lon="-0.568575">
        <ele>52.397098</ele>
        <time>2026-05-24T07:44:24.000Z</time>
      </trkpt>
      <trkpt lat="52.120304" lon="-0.566011">
        <ele>56.534533</ele>
        <time>2026-05-24T07:44:44.000Z</time>
      </trkpt>
      <trkpt lat="52.119284" lon="-0.563374">
        <ele>62.877867</ele>
        <time>2026-05-24T07:45:05.000Z</time>
      </trkpt>
      <trkpt lat="52.119066" lon="-0.562893">
        <ele>62.528632</ele>
        <time>2026-05-24T07:45:09.000Z</time>
      </trkpt>
      <trkpt lat="52.118462" lon="-0.561704">
        <ele>59.85779</ele>
        <time>2026-05-24T07:45:20.000Z</time>
      </trkpt>
      <trkpt lat="52.117102" lon="-0.558496">
        <ele>50.457986</ele>
        <time>2026-05-24T07:45:47.000Z</time>
      </trkpt>
      <trkpt lat="52.11681" lon="-0.55794">
        <ele>49.597628</ele>
        <time>2026-05-24T07:45:52.000Z</time>
      </trkpt>
      <trkpt lat="52.115763" lon="-0.554811">
        <ele>46.20806</ele>
        <time>2026-05-24T07:46:16.000Z</time>
      </trkpt>
      <trkpt lat="52.115706" lon="-0.554558">
        <ele>46.074469</ele>
        <time>2026-05-24T07:46:18.000Z</time>
      </trkpt>
      <trkpt lat="52.115711" lon="-0.554438">
        <ele>46.004663</ele>
        <time>2026-05-24T07:46:19.000Z</time>
      </trkpt>
      <trkpt lat="52.115743" lon="-0.55429">
        <ele>45.931362</ele>
        <time>2026-05-24T07:46:20.000Z</time>
      </trkpt>
      <trkpt lat="52.116808" lon="-0.553097">
        <ele>44.958525</ele>
        <time>2026-05-24T07:46:34.000Z</time>
      </trkpt>
      <trkpt lat="52.116814" lon="-0.553098">
        <ele>44.954293</ele>
        <time>2026-05-24T07:46:34.000Z</time>
      </trkpt>
      <trkpt lat="52.117147" lon="-0.552669">
        <ele>44.66881</ele>
        <time>2026-05-24T07:46:39.000Z</time>
      </trkpt>
      <trkpt lat="52.11865" lon="-0.5503">
        <ele>43.020393</ele>
        <time>2026-05-24T07:47:02.000Z</time>
      </trkpt>
      <trkpt lat="52.119475" lon="-0.548792">
        <ele>42.479029</ele>
        <time>2026-05-24T07:47:16.000Z</time>
      </trkpt>
      <trkpt lat="52.119964" lon="-0.548173">
        <ele>42.335649</ele>
        <time>2026-05-24T07:47:23.000Z</time>
      </trkpt>
      <trkpt lat="52.120304" lon="-0.547542">
        <ele>42.197956</ele>
        <time>2026-05-24T07:47:29.000Z</time>
      </trkpt>
      <trkpt lat="52.121348" lon="-0.545663">
        <ele>41.68774</ele>
        <time>2026-05-24T07:47:46.000Z</time>
      </trkpt>
      <trkpt lat="52.121784" lon="-0.544864">
        <ele>41.506035</ele>
        <time>2026-05-24T07:47:53.000Z</time>
      </trkpt>
      <trkpt lat="52.122115" lon="-0.544396">
        <ele>41.393388</ele>
        <time>2026-05-24T07:47:58.000Z</time>
      </trkpt>
      <trkpt lat="52.122387" lon="-0.544094">
        <ele>41.308264</ele>
        <time>2026-05-24T07:48:02.000Z</time>
      </trkpt>
      <trkpt lat="52.122804" lon="-0.543509">
        <ele>41.21914</ele>
        <time>2026-05-24T07:48:08.000Z</time>
      </trkpt>
      <trkpt lat="52.123019" lon="-0.543255">
        <ele>41.310551</ele>
        <time>2026-05-24T07:48:11.000Z</time>
      </trkpt>
      <trkpt lat="52.123119" lon="-0.543156">
        <ele>41.354184</ele>
        <time>2026-05-24T07:48:12.000Z</time>
      </trkpt>
      <trkpt lat="52.123439" lon="-0.542836">
        <ele>41.486553</ele>
        <time>2026-05-24T07:48:16.000Z</time>
      </trkpt>
      <trkpt lat="52.123697" lon="-0.542528">
        <ele>41.593867</ele>
        <time>2026-05-24T07:48:20.000Z</time>
      </trkpt>
      <trkpt lat="52.123823" lon="-0.542294">
        <ele>41.658316</ele>
        <time>2026-05-24T07:48:22.000Z</time>
      </trkpt>
      <trkpt lat="52.123878" lon="-0.542088">
        <ele>41.707696</ele>
        <time>2026-05-24T07:48:24.000Z</time>
      </trkpt>
      <trkpt lat="52.124042" lon="-0.541382">
        <ele>41.820849</ele>
        <time>2026-05-24T07:48:29.000Z</time>
      </trkpt>
      <trkpt lat="52.124224" lon="-0.540958">
        <ele>41.838458</ele>
        <time>2026-05-24T07:48:33.000Z</time>
      </trkpt>
      <trkpt lat="52.124343" lon="-0.540776">
        <ele>41.848367</ele>
        <time>2026-05-24T07:48:35.000Z</time>
      </trkpt>
      <trkpt lat="52.124518" lon="-0.540572">
        <ele>41.861044</ele>
        <time>2026-05-24T07:48:37.000Z</time>
      </trkpt>
      <trkpt lat="52.12476" lon="-0.540615">
        <ele>41.874411</ele>
        <time>2026-05-24T07:48:40.000Z</time>
      </trkpt>
      <trkpt lat="52.124923" lon="-0.540684">
        <ele>41.883856</ele>
        <time>2026-05-24T07:48:42.000Z</time>
      </trkpt>
      <trkpt lat="52.125162" lon="-0.540897">
        <ele>41.899594</ele>
        <time>2026-05-24T07:48:45.000Z</time>
      </trkpt>
      <trkpt lat="52.12535" lon="-0.540954">
        <ele>41.910362</ele>
        <time>2026-05-24T07:48:47.000Z</time>
      </trkpt>
      <trkpt lat="52.125493" lon="-0.540943">
        <ele>41.919481</ele>
        <time>2026-05-24T07:48:49.000Z</time>
      </trkpt>
      <trkpt lat="52.125573" lon="-0.540888">
        <ele>41.927147</ele>
        <time>2026-05-24T07:48:50.000Z</time>
      </trkpt>
      <trkpt lat="52.125702" lon="-0.540735">
        <ele>41.939481</ele>
        <time>2026-05-24T07:48:52.000Z</time>
      </trkpt>
      <trkpt lat="52.126077" lon="-0.54016">
        <ele>41.982162</ele>
        <time>2026-05-24T07:48:58.000Z</time>
      </trkpt>
      <trkpt lat="52.126156" lon="-0.540054">
        <ele>41.989522</ele>
        <time>2026-05-24T07:48:59.000Z</time>
      </trkpt>
      <trkpt lat="52.126911" lon="-0.53916">
        <ele>42.076844</ele>
        <time>2026-05-24T07:49:09.000Z</time>
      </trkpt>
      <trkpt lat="52.126934" lon="-0.539115">
        <ele>42.084424</ele>
        <time>2026-05-24T07:49:09.000Z</time>
      </trkpt>
      <trkpt lat="52.127384" lon="-0.538537">
        <ele>42.21777</ele>
        <time>2026-05-24T07:49:15.000Z</time>
      </trkpt>
      <trkpt lat="52.128777" lon="-0.53657">
        <ele>42.56606</ele>
        <time>2026-05-24T07:49:35.000Z</time>
      </trkpt>
      <trkpt lat="52.12923" lon="-0.535831">
        <ele>42.640469</ele>
        <time>2026-05-24T07:49:42.000Z</time>
      </trkpt>
      <trkpt lat="52.129902" lon="-0.534591">
        <ele>42.473511</ele>
        <time>2026-05-24T07:49:53.000Z</time>
      </trkpt>
      <trkpt lat="52.130039" lon="-0.534275">
        <ele>42.388312</ele>
        <time>2026-05-24T07:49:56.000Z</time>
      </trkpt>
      <trkpt lat="52.130169" lon="-0.533931">
        <ele>42.295535</ele>
        <time>2026-05-24T07:49:59.000Z</time>
      </trkpt>
      <trkpt lat="52.130359" lon="-0.533306">
        <ele>42.136627</ele>
        <time>2026-05-24T07:50:04.000Z</time>
      </trkpt>
      <trkpt lat="52.130463" lon="-0.53251">
        <ele>41.784542</ele>
        <time>2026-05-24T07:50:10.000Z</time>
      </trkpt>
      <trkpt lat="52.130527" lon="-0.531119">
        <ele>40.769879</ele>
        <time>2026-05-24T07:50:20.000Z</time>
      </trkpt>
      <trkpt lat="52.13062" lon="-0.530534">
        <ele>40.32126</ele>
        <time>2026-05-24T07:50:24.000Z</time>
      </trkpt>
      <trkpt lat="52.130776" lon="-0.529728">
        <ele>39.598663</ele>
        <time>2026-05-24T07:50:30.000Z</time>
      </trkpt>
      <trkpt lat="52.131086" lon="-0.528688">
        <ele>38.265019</ele>
        <time>2026-05-24T07:50:38.000Z</time>
      </trkpt>
      <trkpt lat="52.131124" lon="-0.528245">
        <ele>37.742773</ele>
        <time>2026-05-24T07:50:41.000Z</time>
      </trkpt>
      <trkpt lat="52.131035" lon="-0.527957">
        <ele>37.362015</ele>
        <time>2026-05-24T07:50:43.000Z</time>
      </trkpt>
      <trkpt lat="52.130933" lon="-0.527765">
        <ele>37.068779</ele>
        <time>2026-05-24T07:50:45.000Z</time>
      </trkpt>
      <trkpt lat="52.130728" lon="-0.527544">
        <ele>36.580225</ele>
        <time>2026-05-24T07:50:48.000Z</time>
      </trkpt>
      <trkpt lat="52.130502" lon="-0.527423">
        <ele>36.214646</ele>
        <time>2026-05-24T07:50:51.000Z</time>
      </trkpt>
      <trkpt lat="52.130026" lon="-0.527247">
        <ele>35.420322</ele>
        <time>2026-05-24T07:50:56.000Z</time>
      </trkpt>
      <trkpt lat="52.129303" lon="-0.527116">
        <ele>34.273081</ele>
        <time>2026-05-24T07:51:04.000Z</time>
      </trkpt>
      <trkpt lat="52.129263" lon="-0.5271">
        <ele>34.212392</ele>
        <time>2026-05-24T07:51:04.000Z</time>
      </trkpt>
      <trkpt lat="52.12922" lon="-0.527087">
        <ele>34.151607</ele>
        <time>2026-05-24T07:51:04.000Z</time>
      </trkpt>
      <trkpt lat="52.129234" lon="-0.527098">
        <ele>34.14828</ele>
        <time>2026-05-24T07:51:04.000Z</time>
      </trkpt>
      <trkpt lat="52.127483" lon="-0.526354">
        <ele>33.078282</ele>
        <time>2026-05-24T07:51:24.000Z</time>
      </trkpt>
      <trkpt lat="52.126426" lon="-0.525742">
        <ele>33.104815</ele>
        <time>2026-05-24T07:51:36.000Z</time>
      </trkpt>
      <trkpt lat="52.125343" lon="-0.525124">
        <ele>33.238746</ele>
        <time>2026-05-24T07:51:49.000Z</time>
      </trkpt>
      <trkpt lat="52.124311" lon="-0.524336">
        <ele>32.807636</ele>
        <time>2026-05-24T07:52:02.000Z</time>
      </trkpt>
      <trkpt lat="52.123881" lon="-0.524074">
        <ele>32.635703</ele>
        <time>2026-05-24T07:52:07.000Z</time>
      </trkpt>
      <trkpt lat="52.123496" lon="-0.523907">
        <ele>32.263648</ele>
        <time>2026-05-24T07:52:11.000Z</time>
      </trkpt>
      <trkpt lat="52.123054" lon="-0.523762">
        <ele>31.782242</ele>
        <time>2026-05-24T07:52:16.000Z</time>
      </trkpt>
      <trkpt lat="52.122095" lon="-0.523314">
        <ele>30.725244</ele>
        <time>2026-05-24T07:52:27.000Z</time>
      </trkpt>
      <trkpt lat="52.121809" lon="-0.523234">
        <ele>30.930581</ele>
        <time>2026-05-24T07:52:30.000Z</time>
      </trkpt>
      <trkpt lat="52.121816" lon="-0.523229">
        <ele>30.936204</ele>
        <time>2026-05-24T07:52:30.000Z</time>
      </trkpt>
      <trkpt lat="52.121813" lon="-0.52322">
        <ele>30.937019</ele>
        <time>2026-05-24T07:52:30.000Z</time>
      </trkpt>
      <trkpt lat="52.121777" lon="-0.523226">
        <ele>30.957216</ele>
        <time>2026-05-24T07:52:30.000Z</time>
      </trkpt>
      <trkpt lat="52.121459" lon="-0.523178">
        <ele>31.219959</ele>
        <time>2026-05-24T07:52:34.000Z</time>
      </trkpt>
      <trkpt lat="52.121107" lon="-0.523048">
        <ele>31.509107</ele>
        <time>2026-05-24T07:52:38.000Z</time>
      </trkpt>
      <trkpt lat="52.120342" lon="-0.522609">
        <ele>32.149687</ele>
        <time>2026-05-24T07:52:47.000Z</time>
      </trkpt>
      <trkpt lat="52.120034" lon="-0.52233">
        <ele>32.173732</ele>
        <time>2026-05-24T07:52:51.000Z</time>
      </trkpt>
      <trkpt lat="52.119096" lon="-0.521092">
        <ele>32.251096</ele>
        <time>2026-05-24T07:53:04.000Z</time>
      </trkpt>
      <trkpt lat="52.118569" lon="-0.520422">
        <ele>31.731341</ele>
        <time>2026-05-24T07:53:11.000Z</time>
      </trkpt>
      <trkpt lat="52.117995" lon="-0.519603">
        <ele>30.776946</ele>
        <time>2026-05-24T07:53:19.000Z</time>
      </trkpt>
      <trkpt lat="52.117397" lon="-0.518738">
        <ele>29.854631</ele>
        <time>2026-05-24T07:53:28.000Z</time>
      </trkpt>
      <trkpt lat="52.117346" lon="-0.518629">
        <ele>29.792993</ele>
        <time>2026-05-24T07:53:29.000Z</time>
      </trkpt>
      <trkpt lat="52.117403" lon="-0.518486">
        <ele>29.704511</ele>
        <time>2026-05-24T07:53:30.000Z</time>
      </trkpt>
      <trkpt lat="52.117415" lon="-0.518307">
        <ele>29.61584</ele>
        <time>2026-05-24T07:53:31.000Z</time>
      </trkpt>
      <trkpt lat="52.117392" lon="-0.518231">
        <ele>29.570889</ele>
        <time>2026-05-24T07:53:32.000Z</time>
      </trkpt>
      <trkpt lat="52.118086" lon="-0.517082">
        <ele>28.751194</ele>
        <time>2026-05-24T07:53:43.000Z</time>
      </trkpt>
      <trkpt lat="52.119433" lon="-0.515038">
        <ele>27.563321</ele>
        <time>2026-05-24T07:54:03.000Z</time>
      </trkpt>
      <trkpt lat="52.120265" lon="-0.51372">
        <ele>27.359535</ele>
        <time>2026-05-24T07:54:16.000Z</time>
      </trkpt>
      <trkpt lat="52.120547" lon="-0.513228">
        <ele>27.326784</ele>
        <time>2026-05-24T07:54:21.000Z</time>
      </trkpt>
      <trkpt lat="52.120774" lon="-0.513046">
        <ele>27.306564</ele>
        <time>2026-05-24T07:54:24.000Z</time>
      </trkpt>
      <trkpt lat="52.120853" lon="-0.513063">
        <ele>27.300549</ele>
        <time>2026-05-24T07:54:25.000Z</time>
      </trkpt>
      <trkpt lat="52.121128" lon="-0.513241">
        <ele>27.348647</ele>
        <time>2026-05-24T07:54:28.000Z</time>
      </trkpt>
      <trkpt lat="52.121964" lon="-0.514334">
        <ele>27.642568</ele>
        <time>2026-05-24T07:54:40.000Z</time>
      </trkpt>
      <trkpt lat="52.122421" lon="-0.5148">
        <ele>27.79366</ele>
        <time>2026-05-24T07:54:46.000Z</time>
      </trkpt>
      <trkpt lat="52.122984" lon="-0.51523">
        <ele>28.03688</ele>
        <time>2026-05-24T07:54:53.000Z</time>
      </trkpt>
      <trkpt lat="52.123651" lon="-0.515661">
        <ele>28.308759</ele>
        <time>2026-05-24T07:55:01.000Z</time>
      </trkpt>
      <trkpt lat="52.124578" lon="-0.516155">
        <ele>28.61504</ele>
        <time>2026-05-24T07:55:12.000Z</time>
      </trkpt>
      <trkpt lat="52.126779" lon="-0.517189">
        <ele>29.059308</ele>
        <time>2026-05-24T07:55:37.000Z</time>
      </trkpt>
      <trkpt lat="52.126788" lon="-0.5172">
        <ele>29.061523</ele>
        <time>2026-05-24T07:55:37.000Z</time>
      </trkpt>
      <trkpt lat="52.126798" lon="-0.517209">
        <ele>29.062038</ele>
        <time>2026-05-24T07:55:37.000Z</time>
      </trkpt>
      <trkpt lat="52.128549" lon="-0.517983">
        <ele>29.055058</ele>
        <time>2026-05-24T07:55:57.000Z</time>
      </trkpt>
      <trkpt lat="52.128724" lon="-0.518158">
        <ele>29.035075</ele>
        <time>2026-05-24T07:55:59.000Z</time>
      </trkpt>
      <trkpt lat="52.128803" lon="-0.518368">
        <ele>29.020631</ele>
        <time>2026-05-24T07:56:01.000Z</time>
      </trkpt>
      <trkpt lat="52.12885" lon="-0.518603">
        <ele>29.006253</ele>
        <time>2026-05-24T07:56:03.000Z</time>
      </trkpt>
      <trkpt lat="52.128956" lon="-0.518737">
        <ele>28.991882</ele>
        <time>2026-05-24T07:56:04.000Z</time>
      </trkpt>
      <trkpt lat="52.129045" lon="-0.518769">
        <ele>28.984528</ele>
        <time>2026-05-24T07:56:05.000Z</time>
      </trkpt>
      <trkpt lat="52.129184" lon="-0.518686">
        <ele>28.971699</ele>
        <time>2026-05-24T07:56:07.000Z</time>
      </trkpt>
      <trkpt lat="52.129621" lon="-0.518675">
        <ele>28.9331</ele>
        <time>2026-05-24T07:56:12.000Z</time>
      </trkpt>
      <trkpt lat="52.131285" lon="-0.519595">
        <ele>28.78467</ele>
        <time>2026-05-24T07:56:32.000Z</time>
      </trkpt>
      <trkpt lat="52.13425" lon="-0.521458">
        <ele>28.548311</ele>
        <time>2026-05-24T07:57:07.000Z</time>
      </trkpt>
      <trkpt lat="52.134714" lon="-0.521722">
        <ele>28.62428</ele>
        <time>2026-05-24T07:57:12.000Z</time>
      </trkpt>
      <trkpt lat="52.135951" lon="-0.522164">
        <ele>28.83066</ele>
        <time>2026-05-24T07:57:26.000Z</time>
      </trkpt>
      <trkpt lat="52.136553" lon="-0.522294">
        <ele>29.076608</ele>
        <time>2026-05-24T07:57:33.000Z</time>
      </trkpt>
      <trkpt lat="52.136942" lon="-0.522336">
        <ele>29.231511</ele>
        <time>2026-05-24T07:57:37.000Z</time>
      </trkpt>
      <trkpt lat="52.137692" lon="-0.522332">
        <ele>29.52755</ele>
        <time>2026-05-24T07:57:45.000Z</time>
      </trkpt>
      <trkpt lat="52.138536" lon="-0.522245">
        <ele>29.549295</ele>
        <time>2026-05-24T07:57:54.000Z</time>
      </trkpt>
      <trkpt lat="52.140141" lon="-0.521993">
        <ele>29.483673</ele>
        <time>2026-05-24T07:58:12.000Z</time>
      </trkpt>
      <trkpt lat="52.141965" lon="-0.521796">
        <ele>29.283203</ele>
        <time>2026-05-24T07:58:32.000Z</time>
      </trkpt>
      <trkpt lat="52.142089" lon="-0.521876">
        <ele>29.272576</ele>
        <time>2026-05-24T07:58:33.000Z</time>
      </trkpt>
      <trkpt lat="52.142297" lon="-0.521973">
        <ele>29.256084</ele>
        <time>2026-05-24T07:58:35.000Z</time>
      </trkpt>
      <trkpt lat="52.142463" lon="-0.522115">
        <ele>29.241258</ele>
        <time>2026-05-24T07:58:37.000Z</time>
      </trkpt>
      <trkpt lat="52.142524" lon="-0.522247">
        <ele>29.23253</ele>
        <time>2026-05-24T07:58:38.000Z</time>
      </trkpt>
      <trkpt lat="52.142607" lon="-0.522762">
        <ele>29.207691</ele>
        <time>2026-05-24T07:58:42.000Z</time>
      </trkpt>
      <trkpt lat="52.142659" lon="-0.522977">
        <ele>29.212491</ele>
        <time>2026-05-24T07:58:44.000Z</time>
      </trkpt>
      <trkpt lat="52.142621" lon="-0.523484">
        <ele>29.615299</ele>
        <time>2026-05-24T07:58:47.000Z</time>
      </trkpt>
      <trkpt lat="52.142576" lon="-0.523844">
        <ele>29.897462</ele>
        <time>2026-05-24T07:58:50.000Z</time>
      </trkpt>
      <trkpt lat="52.142357" lon="-0.525759">
        <ele>31.411958</ele>
        <time>2026-05-24T07:59:03.000Z</time>
      </trkpt>
      <trkpt lat="52.142197" lon="-0.526996">
        <ele>34.45762</ele>
        <time>2026-05-24T07:59:12.000Z</time>
      </trkpt>
      <trkpt lat="52.142084" lon="-0.527847">
        <ele>36.645445</ele>
        <time>2026-05-24T07:59:18.000Z</time>
      </trkpt>
      <trkpt lat="52.14194" lon="-0.528704">
        <ele>38.854466</ele>
        <time>2026-05-24T07:59:24.000Z</time>
      </trkpt>
      <trkpt lat="52.141783" lon="-0.529716">
        <ele>41.92234</ele>
        <time>2026-05-24T07:59:31.000Z</time>
      </trkpt>
      <trkpt lat="52.141747" lon="-0.529847">
        <ele>42.276563</ele>
        <time>2026-05-24T07:59:32.000Z</time>
      </trkpt>
      <trkpt lat="52.141638" lon="-0.530482">
        <ele>44.18798</ele>
        <time>2026-05-24T07:59:37.000Z</time>
      </trkpt>
      <trkpt lat="52.141309" lon="-0.532044">
        <ele>48.046559</ele>
        <time>2026-05-24T07:59:48.000Z</time>
      </trkpt>
      <trkpt lat="52.141021" lon="-0.533316">
        <ele>49.864467</ele>
        <time>2026-05-24T07:59:57.000Z</time>
      </trkpt>
      <trkpt lat="52.14052" lon="-0.53524">
        <ele>50.916349</ele>
        <time>2026-05-24T08:00:11.000Z</time>
      </trkpt>
      <trkpt lat="52.140344" lon="-0.536077">
        <ele>50.70293</ele>
        <time>2026-05-24T08:00:17.000Z</time>
      </trkpt>
      <trkpt lat="52.140318" lon="-0.536207">
        <ele>50.667691</ele>
        <time>2026-05-24T08:00:18.000Z</time>
      </trkpt>
      <trkpt lat="52.140141" lon="-0.537136">
        <ele>50.137568</ele>
        <time>2026-05-24T08:00:25.000Z</time>
      </trkpt>
      <trkpt lat="52.139996" lon="-0.538305">
        <ele>47.576253</ele>
        <time>2026-05-24T08:00:33.000Z</time>
      </trkpt>
      <trkpt lat="52.13993" lon="-0.539052">
        <ele>45.946925</ele>
        <time>2026-05-24T08:00:38.000Z</time>
      </trkpt>
      <trkpt lat="52.139894" lon="-0.539733">
        <ele>44.492174</ele>
        <time>2026-05-24T08:00:43.000Z</time>
      </trkpt>
      <trkpt lat="52.1399" lon="-0.539795">
        <ele>44.345744</ele>
        <time>2026-05-24T08:00:43.000Z</time>
      </trkpt>
      <trkpt lat="52.139889" lon="-0.539852">
        <ele>44.249029</ele>
        <time>2026-05-24T08:00:43.000Z</time>
      </trkpt>
      <trkpt lat="52.139878" lon="-0.540881">
        <ele>42.303292</ele>
        <time>2026-05-24T08:00:50.000Z</time>
      </trkpt>
      <trkpt lat="52.139921" lon="-0.542005">
        <ele>40.209729</ele>
        <time>2026-05-24T08:00:58.000Z</time>
      </trkpt>
      <trkpt lat="52.14" lon="-0.543028">
        <ele>38.933087</ele>
        <time>2026-05-24T08:01:05.000Z</time>
      </trkpt>
      <trkpt lat="52.140151" lon="-0.543889">
        <ele>39.729066</ele>
        <time>2026-05-24T08:01:11.000Z</time>
      </trkpt>
      <trkpt lat="52.140283" lon="-0.544357">
        <ele>40.195678</ele>
        <time>2026-05-24T08:01:15.000Z</time>
      </trkpt>
      <trkpt lat="52.140447" lon="-0.54471">
        <ele>40.580566</ele>
        <time>2026-05-24T08:01:18.000Z</time>
      </trkpt>
      <trkpt lat="52.140678" lon="-0.545069">
        <ele>41.054781</ele>
        <time>2026-05-24T08:01:22.000Z</time>
      </trkpt>
      <trkpt lat="52.140677" lon="-0.545177">
        <ele>41.143847</ele>
        <time>2026-05-24T08:01:23.000Z</time>
      </trkpt>
      <trkpt lat="52.140696" lon="-0.545277">
        <ele>41.245586</ele>
        <time>2026-05-24T08:01:24.000Z</time>
      </trkpt>
      <trkpt lat="52.140759" lon="-0.545336">
        <ele>41.355156</ele>
        <time>2026-05-24T08:01:25.000Z</time>
      </trkpt>
      <trkpt lat="52.140562" lon="-0.546538">
        <ele>42.757798</ele>
        <time>2026-05-24T08:01:33.000Z</time>
      </trkpt>
      <trkpt lat="52.140454" lon="-0.546998">
        <ele>43.33229</ele>
        <time>2026-05-24T08:01:36.000Z</time>
      </trkpt>
      <trkpt lat="52.140365" lon="-0.547311">
        <ele>43.728555</ele>
        <time>2026-05-24T08:01:38.000Z</time>
      </trkpt>
      <trkpt lat="52.140026" lon="-0.548203">
        <ele>44.6302</ele>
        <time>2026-05-24T08:01:45.000Z</time>
      </trkpt>
      <trkpt lat="52.139716" lon="-0.548838">
        <ele>44.452333</ele>
        <time>2026-05-24T08:01:51.000Z</time>
      </trkpt>
      <trkpt lat="52.139448" lon="-0.549335">
        <ele>44.304403</ele>
        <time>2026-05-24T08:01:56.000Z</time>
      </trkpt>
      <trkpt lat="52.139178" lon="-0.549765">
        <ele>44.168168</ele>
        <time>2026-05-24T08:02:00.000Z</time>
      </trkpt>
      <trkpt lat="52.137404" lon="-0.55232">
        <ele>42.703904</ele>
        <time>2026-05-24T08:02:26.000Z</time>
      </trkpt>
      <trkpt lat="52.137109" lon="-0.552676">
        <ele>42.578228</ele>
        <time>2026-05-24T08:02:30.000Z</time>
      </trkpt>
      <trkpt lat="52.135191" lon="-0.555146">
        <ele>42.170791</ele>
        <time>2026-05-24T08:02:57.000Z</time>
      </trkpt>
      <trkpt lat="52.134514" lon="-0.556029">
        <ele>42.289668</ele>
        <time>2026-05-24T08:03:07.000Z</time>
      </trkpt>
      <trkpt lat="52.132599" lon="-0.558261">
        <ele>43.2452</ele>
        <time>2026-05-24T08:03:33.000Z</time>
      </trkpt>
      <trkpt lat="52.130722" lon="-0.560383">
        <ele>44.538471</ele>
        <time>2026-05-24T08:03:58.000Z</time>
      </trkpt>
      <trkpt lat="52.130225" lon="-0.560969">
        <ele>45.064241</ele>
        <time>2026-05-24T08:04:05.000Z</time>
      </trkpt>
      <trkpt lat="52.129882" lon="-0.561443">
        <ele>45.787715</ele>
        <time>2026-05-24T08:04:10.000Z</time>
      </trkpt>
      <trkpt lat="52.1298" lon="-0.561587">
        <ele>45.978911</ele>
        <time>2026-05-24T08:04:11.000Z</time>
      </trkpt>
      <trkpt lat="52.129478" lon="-0.562129">
        <ele>46.701525</ele>
        <time>2026-05-24T08:04:16.000Z</time>
      </trkpt>
      <trkpt lat="52.129098" lon="-0.562886">
        <ele>47.668143</ele>
        <time>2026-05-24T08:04:23.000Z</time>
      </trkpt>
      <trkpt lat="52.128832" lon="-0.563544">
        <ele>49.040406</ele>
        <time>2026-05-24T08:04:28.000Z</time>
      </trkpt>
      <trkpt lat="52.128743" lon="-0.563814">
        <ele>49.594549</ele>
        <time>2026-05-24T08:04:30.000Z</time>
      </trkpt>
      <trkpt lat="52.128484" lon="-0.564589">
        <ele>51.161813</ele>
        <time>2026-05-24T08:04:36.000Z</time>
      </trkpt>
      <trkpt lat="52.127558" lon="-0.567846">
        <ele>58.083329</ele>
        <time>2026-05-24T08:05:01.000Z</time>
      </trkpt>
      <trkpt lat="52.127553" lon="-0.567869">
        <ele>58.120403</ele>
        <time>2026-05-24T08:05:01.000Z</time>
      </trkpt>
      <trkpt lat="52.127533" lon="-0.567918">
        <ele>58.211517</ele>
        <time>2026-05-24T08:05:01.000Z</time>
      </trkpt>
      <trkpt lat="52.12696" lon="-0.569846">
        <ele>61.47033</ele>
        <time>2026-05-24T08:05:16.000Z</time>
      </trkpt>
      <trkpt lat="52.125732" lon="-0.573664">
        <ele>65.348473</ele>
        <time>2026-05-24T08:05:45.000Z</time>
      </trkpt>
      <trkpt lat="52.1256" lon="-0.574074">
        <ele>64.693853</ele>
        <time>2026-05-24T08:05:48.000Z</time>
      </trkpt>
      <trkpt lat="52.125489" lon="-0.574425">
        <ele>64.111189</ele>
        <time>2026-05-24T08:05:51.000Z</time>
      </trkpt>
      <trkpt lat="52.122046" lon="-0.570437">
        <ele>53.550405</ele>
        <time>2026-05-24T08:06:38.000Z</time>
      </trkpt>
      <trkpt lat="52.121811" lon="-0.569947">
        <ele>52.492569</ele>
        <time>2026-05-24T08:06:42.000Z</time>
      </trkpt>
      <trkpt lat="52.121609" lon="-0.569454">
        <ele>52.458584</ele>
        <time>2026-05-24T08:06:46.000Z</time>
      </trkpt>
      <trkpt lat="52.121452" lon="-0.569075">
        <ele>52.639144</ele>
        <time>2026-05-24T08:06:49.000Z</time>
      </trkpt>
      <trkpt lat="52.12124" lon="-0.56858">
        <ele>52.86466</ele>
        <time>2026-05-24T08:06:53.000Z</time>
      </trkpt>
      <trkpt lat="52.120303" lon="-0.566003">
        <ele>56.760652</ele>
        <time>2026-05-24T08:07:13.000Z</time>
      </trkpt>
      <trkpt lat="52.119288" lon="-0.563377">
        <ele>61.541886</ele>
        <time>2026-05-24T08:07:34.000Z</time>
      </trkpt>
      <trkpt lat="52.119061" lon="-0.562889">
        <ele>62.208395</ele>
        <time>2026-05-24T08:07:38.000Z</time>
      </trkpt>
      <trkpt lat="52.118461" lon="-0.561707">
        <ele>60.310124</ele>
        <time>2026-05-24T08:07:48.000Z</time>
      </trkpt>
      <trkpt lat="52.117096" lon="-0.55849">
        <ele>50.985793</ele>
        <time>2026-05-24T08:08:15.000Z</time>
      </trkpt>
      <trkpt lat="52.116812" lon="-0.557939">
        <ele>49.364688</ele>
        <time>2026-05-24T08:08:20.000Z</time>
      </trkpt>
      <trkpt lat="52.115758" lon="-0.554796">
        <ele>46.072115</ele>
        <time>2026-05-24T08:08:44.000Z</time>
      </trkpt>
      <trkpt lat="52.115697" lon="-0.554565">
        <ele>45.975072</ele>
        <time>2026-05-24T08:08:46.000Z</time>
      </trkpt>
      <trkpt lat="52.115724" lon="-0.554429">
        <ele>45.924377</ele>
        <time>2026-05-24T08:08:47.000Z</time>
      </trkpt>
      <trkpt lat="52.115743" lon="-0.554288">
        <ele>45.871137</ele>
        <time>2026-05-24T08:08:48.000Z</time>
      </trkpt>
      <trkpt lat="52.11681" lon="-0.553097">
        <ele>45.07439</ele>
        <time>2026-05-24T08:09:02.000Z</time>
      </trkpt>
      <trkpt lat="52.116818" lon="-0.553094">
        <ele>45.06908</ele>
        <time>2026-05-24T08:09:02.000Z</time>
      </trkpt>
      <trkpt lat="52.117146" lon="-0.552679">
        <ele>44.711009</ele>
        <time>2026-05-24T08:09:07.000Z</time>
      </trkpt>
      <trkpt lat="52.118658" lon="-0.550305">
        <ele>43.08764</ele>
        <time>2026-05-24T08:09:30.000Z</time>
      </trkpt>
      <trkpt lat="52.119484" lon="-0.548798">
        <ele>42.404631</ele>
        <time>2026-05-24T08:09:44.000Z</time>
      </trkpt>
      <trkpt lat="52.119963" lon="-0.548176">
        <ele>42.301457</ele>
        <time>2026-05-24T08:09:51.000Z</time>
      </trkpt>
      <trkpt lat="52.120304" lon="-0.547531">
        <ele>42.21344</ele>
        <time>2026-05-24T08:09:57.000Z</time>
      </trkpt>
      <trkpt lat="52.121333" lon="-0.545665">
        <ele>41.637699</ele>
        <time>2026-05-24T08:10:14.000Z</time>
      </trkpt>
      <trkpt lat="52.1218" lon="-0.544849">
        <ele>41.332668</ele>
        <time>2026-05-24T08:10:22.000Z</time>
      </trkpt>
      <trkpt lat="52.12213" lon="-0.544386">
        <ele>41.355364</ele>
        <time>2026-05-24T08:10:27.000Z</time>
      </trkpt>
      <trkpt lat="52.122386" lon="-0.544106">
        <ele>41.375959</ele>
        <time>2026-05-24T08:10:30.000Z</time>
      </trkpt>
      <trkpt lat="52.12279" lon="-0.543515">
        <ele>41.40957</ele>
        <time>2026-05-24T08:10:36.000Z</time>
      </trkpt>
      <trkpt lat="52.123011" lon="-0.543264">
        <ele>41.426168</ele>
        <time>2026-05-24T08:10:39.000Z</time>
      </trkpt>
      <trkpt lat="52.123121" lon="-0.543163">
        <ele>41.434073</ele>
        <time>2026-05-24T08:10:40.000Z</time>
      </trkpt>
      <trkpt lat="52.123453" lon="-0.542835">
        <ele>41.503906</ele>
        <time>2026-05-24T08:10:44.000Z</time>
      </trkpt>
      <trkpt lat="52.123687" lon="-0.542517">
        <ele>41.576722</ele>
        <time>2026-05-24T08:10:47.000Z</time>
      </trkpt>
      <trkpt lat="52.123812" lon="-0.542283">
        <ele>41.620443</ele>
        <time>2026-05-24T08:10:49.000Z</time>
      </trkpt>
      <trkpt lat="52.123875" lon="-0.542087">
        <ele>41.653953</ele>
        <time>2026-05-24T08:10:51.000Z</time>
      </trkpt>
      <trkpt lat="52.124053" lon="-0.541383">
        <ele>41.761876</ele>
        <time>2026-05-24T08:10:56.000Z</time>
      </trkpt>
      <trkpt lat="52.124221" lon="-0.540966">
        <ele>41.834347</ele>
        <time>2026-05-24T08:10:59.000Z</time>
      </trkpt>
      <trkpt lat="52.124345" lon="-0.540762">
        <ele>41.864721</ele>
        <time>2026-05-24T08:11:01.000Z</time>
      </trkpt>
      <trkpt lat="52.124534" lon="-0.540565">
        <ele>41.872799</ele>
        <time>2026-05-24T08:11:03.000Z</time>
      </trkpt>
      <trkpt lat="52.124751" lon="-0.54062">
        <ele>41.88133</ele>
        <time>2026-05-24T08:11:05.000Z</time>
      </trkpt>
      <trkpt lat="52.124919" lon="-0.540683">
        <ele>41.887341</ele>
        <time>2026-05-24T08:11:07.000Z</time>
      </trkpt>
      <trkpt lat="52.125169" lon="-0.540901">
        <ele>41.897362</ele>
        <time>2026-05-24T08:11:10.000Z</time>
      </trkpt>
      <trkpt lat="52.12535" lon="-0.540961">
        <ele>41.904223</ele>
        <time>2026-05-24T08:11:12.000Z</time>
      </trkpt>
      <trkpt lat="52.125492" lon="-0.540946">
        <ele>41.909059</ele>
        <time>2026-05-24T08:11:14.000Z</time>
      </trkpt>
      <trkpt lat="52.125581" lon="-0.54089">
        <ele>41.912508</ele>
        <time>2026-05-24T08:11:15.000Z</time>
      </trkpt>
      <trkpt lat="52.1257" lon="-0.540739">
        <ele>41.918071</ele>
        <time>2026-05-24T08:11:17.000Z</time>
      </trkpt>
      <trkpt lat="52.12608" lon="-0.540158">
        <ele>41.967624</ele>
        <time>2026-05-24T08:11:23.000Z</time>
      </trkpt>
      <trkpt lat="52.126161" lon="-0.540054">
        <ele>41.981871</ele>
        <time>2026-05-24T08:11:24.000Z</time>
      </trkpt>
      <trkpt lat="52.126922" lon="-0.539157">
        <ele>42.128622</ele>
        <time>2026-05-24T08:11:34.000Z</time>
      </trkpt>
      <trkpt lat="52.126929" lon="-0.539121">
        <ele>42.133648</ele>
        <time>2026-05-24T08:11:34.000Z</time>
      </trkpt>
      <trkpt lat="52.127387" lon="-0.538535">
        <ele>42.226085</ele>
        <time>2026-05-24T08:11:40.000Z</time>
      </trkpt>
      <trkpt lat="52.128775" lon="-0.536566">
        <ele>42.583358</ele>
        <time>2026-05-24T08:12:00.000Z</time>
      </trkpt>
      <trkpt lat="52.129215" lon="-0.535828">
        <ele>42.614853</ele>
        <time>2026-05-24T08:12:07.000Z</time>
      </trkpt>
      <trkpt lat="52.12992" lon="-0.534593">
        <ele>42.664743</ele>
        <time>2026-05-24T08:12:19.000Z</time>
      </trkpt>
      <trkpt lat="52.130035" lon="-0.534272">
        <ele>42.505047</ele>
        <time>2026-05-24T08:12:22.000Z</time>
      </trkpt>
      <trkpt lat="52.130165" lon="-0.533928">
        <ele>42.327352</ele>
        <time>2026-05-24T08:12:25.000Z</time>
      </trkpt>
      <trkpt lat="52.130358" lon="-0.533315">
        <ele>42.022989</ele>
        <time>2026-05-24T08:12:30.000Z</time>
      </trkpt>
      <trkpt lat="52.130463" lon="-0.532505">
        <ele>41.663746</ele>
        <time>2026-05-24T08:12:36.000Z</time>
      </trkpt>
      <trkpt lat="52.130515" lon="-0.531113">
        <ele>40.765139</ele>
        <time>2026-05-24T08:12:46.000Z</time>
      </trkpt>
      <trkpt lat="52.130617" lon="-0.530519">
        <ele>40.25832</ele>
        <time>2026-05-24T08:12:50.000Z</time>
      </trkpt>
      <trkpt lat="52.130778" lon="-0.52972">
        <ele>39.559819</ele>
        <time>2026-05-24T08:12:56.000Z</time>
      </trkpt>
      <trkpt lat="52.131071" lon="-0.52868">
        <ele>38.420744</ele>
        <time>2026-05-24T08:13:04.000Z</time>
      </trkpt>
      <trkpt lat="52.131128" lon="-0.528247">
        <ele>37.849296</ele>
        <time>2026-05-24T08:13:07.000Z</time>
      </trkpt>
      <trkpt lat="52.131031" lon="-0.527964">
        <ele>37.432643</ele>
        <time>2026-05-24T08:13:09.000Z</time>
      </trkpt>
      <trkpt lat="52.130933" lon="-0.527761">
        <ele>37.111786</ele>
        <time>2026-05-24T08:13:11.000Z</time>
      </trkpt>
      <trkpt lat="52.13072" lon="-0.527534">
        <ele>36.577209</ele>
        <time>2026-05-24T08:13:14.000Z</time>
      </trkpt>
      <trkpt lat="52.130518" lon="-0.527429">
        <ele>36.122195</ele>
        <time>2026-05-24T08:13:16.000Z</time>
      </trkpt>
      <trkpt lat="52.130021" lon="-0.527244">
        <ele>35.156584</ele>
        <time>2026-05-24T08:13:22.000Z</time>
      </trkpt>
      <trkpt lat="52.129313" lon="-0.527106">
        <ele>34.352866</ele>
        <time>2026-05-24T08:13:30.000Z</time>
      </trkpt>
      <trkpt lat="52.129265" lon="-0.527106">
        <ele>34.310348</ele>
        <time>2026-05-24T08:13:31.000Z</time>
      </trkpt>
      <trkpt lat="52.129226" lon="-0.527091">
        <ele>34.267766</ele>
        <time>2026-05-24T08:13:31.000Z</time>
      </trkpt>
      <trkpt lat="52.129225" lon="-0.527103">
        <ele>34.265433</ele>
        <time>2026-05-24T08:13:31.000Z</time>
      </trkpt>
      <trkpt lat="52.127475" lon="-0.526354">
        <ele>33.144678</ele>
        <time>2026-05-24T08:13:51.000Z</time>
      </trkpt>
      <trkpt lat="52.126431" lon="-0.525752">
        <ele>33.072245</ele>
        <time>2026-05-24T08:14:03.000Z</time>
      </trkpt>
      <trkpt lat="52.125348" lon="-0.52512">
        <ele>33.229401</ele>
        <time>2026-05-24T08:14:16.000Z</time>
      </trkpt>
      <trkpt lat="52.1243" lon="-0.524336">
        <ele>32.768864</ele>
        <time>2026-05-24T08:14:29.000Z</time>
      </trkpt>
      <trkpt lat="52.12388" lon="-0.524074">
        <ele>32.429477</ele>
        <time>2026-05-24T08:14:34.000Z</time>
      </trkpt>
      <trkpt lat="52.123507" lon="-0.523913">
        <ele>32.143416</ele>
        <time>2026-05-24T08:14:38.000Z</time>
      </trkpt>
      <trkpt lat="52.123055" lon="-0.523766">
        <ele>31.818985</ele>
        <time>2026-05-24T08:14:43.000Z</time>
      </trkpt>
      <trkpt lat="52.122096" lon="-0.523313">
        <ele>31.145015</ele>
        <time>2026-05-24T08:14:54.000Z</time>
      </trkpt>
      <trkpt lat="52.121813" lon="-0.523221">
        <ele>30.948186</ele>
        <time>2026-05-24T08:14:57.000Z</time>
      </trkpt>
      <trkpt lat="52.121808" lon="-0.523228">
        <ele>30.943443</ele>
        <time>2026-05-24T08:14:57.000Z</time>
      </trkpt>
      <trkpt lat="52.121802" lon="-0.52323">
        <ele>30.942762</ele>
        <time>2026-05-24T08:14:57.000Z</time>
      </trkpt>
      <trkpt lat="52.121773" lon="-0.523216">
        <ele>30.925751</ele>
        <time>2026-05-24T08:14:57.000Z</time>
      </trkpt>
      <trkpt lat="52.121455" lon="-0.52317">
        <ele>30.787137</ele>
        <time>2026-05-24T08:15:01.000Z</time>
      </trkpt>
      <trkpt lat="52.121106" lon="-0.523047">
        <ele>31.17946</ele>
        <time>2026-05-24T08:15:05.000Z</time>
      </trkpt>
      <trkpt lat="52.120348" lon="-0.522613">
        <ele>32.048648</ele>
        <time>2026-05-24T08:15:14.000Z</time>
      </trkpt>
      <trkpt lat="52.120031" lon="-0.522334">
        <ele>32.432683</ele>
        <time>2026-05-24T08:15:18.000Z</time>
      </trkpt>
      <trkpt lat="52.119097" lon="-0.521107">
        <ele>32.048699</ele>
        <time>2026-05-24T08:15:31.000Z</time>
      </trkpt>
      <trkpt lat="52.118574" lon="-0.520423">
        <ele>31.6033</ele>
        <time>2026-05-24T08:15:38.000Z</time>
      </trkpt>
      <trkpt lat="52.117989" lon="-0.519612">
        <ele>30.832624</ele>
        <time>2026-05-24T08:15:47.000Z</time>
      </trkpt>
      <trkpt lat="52.117391" lon="-0.518742">
        <ele>29.943237</ele>
        <time>2026-05-24T08:15:56.000Z</time>
      </trkpt>
      <trkpt lat="52.117343" lon="-0.518629">
        <ele>29.860726</ele>
        <time>2026-05-24T08:15:57.000Z</time>
      </trkpt>
      <trkpt lat="52.117407" lon="-0.5185">
        <ele>29.742263</ele>
        <time>2026-05-24T08:15:58.000Z</time>
      </trkpt>
      <trkpt lat="52.117409" lon="-0.518312">
        <ele>29.623565</ele>
        <time>2026-05-24T08:15:59.000Z</time>
      </trkpt>
      <trkpt lat="52.117374" lon="-0.518226">
        <ele>29.563384</ele>
        <time>2026-05-24T08:16:00.000Z</time>
      </trkpt>
      <trkpt lat="52.118093" lon="-0.517087">
        <ele>28.766504</ele>
        <time>2026-05-24T08:16:11.000Z</time>
      </trkpt>
      <trkpt lat="52.119439" lon="-0.515036">
        <ele>27.646547</ele>
        <time>2026-05-24T08:16:31.000Z</time>
      </trkpt>
      <trkpt lat="52.120272" lon="-0.513719">
        <ele>27.30227</ele>
        <time>2026-05-24T08:16:44.000Z</time>
      </trkpt>
      <trkpt lat="52.120551" lon="-0.513224">
        <ele>27.327246</ele>
        <time>2026-05-24T08:16:49.000Z</time>
      </trkpt>
      <trkpt lat="52.120767" lon="-0.513042">
        <ele>27.342651</ele>
        <time>2026-05-24T08:16:52.000Z</time>
      </trkpt>
      <trkpt lat="52.120838" lon="-0.513062">
        <ele>27.347242</ele>
        <time>2026-05-24T08:16:53.000Z</time>
      </trkpt>
      <trkpt lat="52.121126" lon="-0.51324">
        <ele>27.3659</ele>
        <time>2026-05-24T08:16:56.000Z</time>
      </trkpt>
      <trkpt lat="52.121955" lon="-0.514327">
        <ele>27.642537</ele>
        <time>2026-05-24T08:17:08.000Z</time>
      </trkpt>
      <trkpt lat="52.122417" lon="-0.514796">
        <ele>27.845038</ele>
        <time>2026-05-24T08:17:14.000Z</time>
      </trkpt>
      <trkpt lat="52.122991" lon="-0.515232">
        <ele>28.077947</ele>
        <time>2026-05-24T08:17:21.000Z</time>
      </trkpt>
      <trkpt lat="52.123651" lon="-0.515643">
        <ele>28.300218</ele>
        <time>2026-05-24T08:17:29.000Z</time>
      </trkpt>
      <trkpt lat="52.124584" lon="-0.516153">
        <ele>28.608913</ele>
        <time>2026-05-24T08:17:40.000Z</time>
      </trkpt>
      <trkpt lat="52.126778" lon="-0.517193">
        <ele>29.078094</ele>
        <time>2026-05-24T08:18:05.000Z</time>
      </trkpt>
      <trkpt lat="52.126798" lon="-0.517208">
        <ele>29.078494</ele>
        <time>2026-05-24T08:18:05.000Z</time>
      </trkpt>
      <trkpt lat="52.126797" lon="-0.517208">
        <ele>29.078591</ele>
        <time>2026-05-24T08:18:05.000Z</time>
      </trkpt>
      <trkpt lat="52.128537" lon="-0.517992">
        <ele>29.062158</ele>
        <time>2026-05-24T08:18:25.000Z</time>
      </trkpt>
      <trkpt lat="52.128712" lon="-0.518173">
        <ele>29.040814</ele>
        <time>2026-05-24T08:18:27.000Z</time>
      </trkpt>
      <trkpt lat="52.128796" lon="-0.518364">
        <ele>29.025402</ele>
        <time>2026-05-24T08:18:29.000Z</time>
      </trkpt>
      <trkpt lat="52.12884" lon="-0.518602">
        <ele>29.010028</ele>
        <time>2026-05-24T08:18:31.000Z</time>
      </trkpt>
      <trkpt lat="52.12896" lon="-0.518738">
        <ele>28.994691</ele>
        <time>2026-05-24T08:18:33.000Z</time>
      </trkpt>
      <trkpt lat="52.129032" lon="-0.518772">
        <ele>28.98684</ele>
        <time>2026-05-24T08:18:34.000Z</time>
      </trkpt>
      <trkpt lat="52.129184" lon="-0.518693">
        <ele>28.971547</ele>
        <time>2026-05-24T08:18:36.000Z</time>
      </trkpt>
      <trkpt lat="52.129636" lon="-0.518676">
        <ele>28.924743</ele>
        <time>2026-05-24T08:18:41.000Z</time>
      </trkpt>
      <trkpt lat="52.131291" lon="-0.519607">
        <ele>28.791431</ele>
        <time>2026-05-24T08:19:00.000Z</time>
      </trkpt>
      <trkpt lat="52.134239" lon="-0.521451">
        <ele>28.574372</ele>
        <time>2026-05-24T08:19:35.000Z</time>
      </trkpt>
      <trkpt lat="52.134714" lon="-0.521714">
        <ele>28.561051</ele>
        <time>2026-05-24T08:19:41.000Z</time>
      </trkpt>
      <trkpt lat="52.13595" lon="-0.522159">
        <ele>28.878351</ele>
        <time>2026-05-24T08:19:55.000Z</time>
      </trkpt>
      <trkpt lat="52.136554" lon="-0.522289">
        <ele>29.043155</ele>
        <time>2026-05-24T08:20:02.000Z</time>
      </trkpt>
      <trkpt lat="52.136946" lon="-0.522328">
        <ele>29.185361</ele>
        <time>2026-05-24T08:20:06.000Z</time>
      </trkpt>
      <trkpt lat="52.137687" lon="-0.522336">
        <ele>29.461322</ele>
        <time>2026-05-24T08:20:14.000Z</time>
      </trkpt>
      <trkpt lat="52.138544" lon="-0.522253">
        <ele>29.640899</ele>
        <time>2026-05-24T08:20:24.000Z</time>
      </trkpt>
      <trkpt lat="52.140142" lon="-0.521986">
        <ele>29.4498</ele>
        <time>2026-05-24T08:20:42.000Z</time>
      </trkpt>
      <trkpt lat="52.141978" lon="-0.521793">
        <ele>29.307171</ele>
        <time>2026-05-24T08:21:02.000Z</time>
      </trkpt>
      <trkpt lat="52.142097" lon="-0.521867">
        <ele>29.319964</ele>
        <time>2026-05-24T08:21:03.000Z</time>
      </trkpt>
      <trkpt lat="52.142293" lon="-0.521962">
        <ele>29.33982</ele>
        <time>2026-05-24T08:21:05.000Z</time>
      </trkpt>
      <trkpt lat="52.142454" lon="-0.522112">
        <ele>29.357667</ele>
        <time>2026-05-24T08:21:07.000Z</time>
      </trkpt>
      <trkpt lat="52.142535" lon="-0.522249">
        <ele>29.368173</ele>
        <time>2026-05-24T08:21:08.000Z</time>
      </trkpt>
      <trkpt lat="52.142599" lon="-0.522761">
        <ele>29.398074</ele>
        <time>2026-05-24T08:21:12.000Z</time>
      </trkpt>
      <trkpt lat="52.14266" lon="-0.522967">
        <ele>29.411674</ele>
        <time>2026-05-24T08:21:14.000Z</time>
      </trkpt>
      <trkpt lat="52.142631" lon="-0.523485">
        <ele>29.442066</ele>
        <time>2026-05-24T08:21:18.000Z</time>
      </trkpt>
      <trkpt lat="52.14258" lon="-0.523834">
        <ele>29.463369</ele>
        <time>2026-05-24T08:21:20.000Z</time>
      </trkpt>
      <trkpt lat="52.142346" lon="-0.52576">
        <ele>31.980547</ele>
        <time>2026-05-24T08:21:33.000Z</time>
      </trkpt>
      <trkpt lat="52.142205" lon="-0.526994">
        <ele>34.005198</ele>
        <time>2026-05-24T08:21:42.000Z</time>
      </trkpt>
      <trkpt lat="52.142083" lon="-0.527841">
        <ele>36.520313</ele>
        <time>2026-05-24T08:21:48.000Z</time>
      </trkpt>
      <trkpt lat="52.141937" lon="-0.528702">
        <ele>39.057283</ele>
        <time>2026-05-24T08:21:54.000Z</time>
      </trkpt>
      <trkpt lat="52.14177" lon="-0.529726">
        <ele>42.095147</ele>
        <time>2026-05-24T08:22:01.000Z</time>
      </trkpt>
      <trkpt lat="52.141761" lon="-0.529839">
        <ele>42.406402</ele>
        <time>2026-05-24T08:22:02.000Z</time>
      </trkpt>
      <trkpt lat="52.141635" lon="-0.530478">
        <ele>44.086</ele>
        <time>2026-05-24T08:22:07.000Z</time>
      </trkpt>
      <trkpt lat="52.14132" lon="-0.532038">
        <ele>48.258004</ele>
        <time>2026-05-24T08:22:18.000Z</time>
      </trkpt>
      <trkpt lat="52.14102" lon="-0.533321">
        <ele>49.948958</ele>
        <time>2026-05-24T08:22:27.000Z</time>
      </trkpt>
      <trkpt lat="52.140526" lon="-0.535231">
        <ele>51.250679</ele>
        <time>2026-05-24T08:22:41.000Z</time>
      </trkpt>
      <trkpt lat="52.140347" lon="-0.536077">
        <ele>50.564774</ele>
        <time>2026-05-24T08:22:47.000Z</time>
      </trkpt>
      <trkpt lat="52.140319" lon="-0.536218">
        <ele>50.451491</ele>
        <time>2026-05-24T08:22:48.000Z</time>
      </trkpt>
      <trkpt lat="52.140156" lon="-0.537132">
        <ele>49.707114</ele>
        <time>2026-05-24T08:22:54.000Z</time>
      </trkpt>
      <trkpt lat="52.139999" lon="-0.538301">
        <ele>48.087731</ele>
        <time>2026-05-24T08:23:02.000Z</time>
      </trkpt>
      <trkpt lat="52.13994" lon="-0.539053">
        <ele>46.146929</ele>
        <time>2026-05-24T08:23:07.000Z</time>
      </trkpt>
      <trkpt lat="52.139891" lon="-0.539742">
        <ele>44.414054</ele>
        <time>2026-05-24T08:23:12.000Z</time>
      </trkpt>
      <trkpt lat="52.139895" lon="-0.539812">
        <ele>44.23964</ele>
        <time>2026-05-24T08:23:12.000Z</time>
      </trkpt>
      <trkpt lat="52.139897" lon="-0.539851">
        <ele>44.124445</ele>
        <time>2026-05-24T08:23:12.000Z</time>
      </trkpt>
      <trkpt lat="52.139886" lon="-0.54089">
        <ele>41.554995</ele>
        <time>2026-05-24T08:23:19.000Z</time>
      </trkpt>
      <trkpt lat="52.139906" lon="-0.542015">
        <ele>40.511694</ele>
        <time>2026-05-24T08:23:27.000Z</time>
      </trkpt>
      <trkpt lat="52.140001" lon="-0.543042">
        <ele>39.548348</ele>
        <time>2026-05-24T08:23:34.000Z</time>
      </trkpt>
      <trkpt lat="52.140142" lon="-0.543887">
        <ele>39.104499</ele>
        <time>2026-05-24T08:23:40.000Z</time>
      </trkpt>
      <trkpt lat="52.140298" lon="-0.544354">
        <ele>39.811241</ele>
        <time>2026-05-24T08:23:44.000Z</time>
      </trkpt>
      <trkpt lat="52.140446" lon="-0.544728">
        <ele>40.394179</ele>
        <time>2026-05-24T08:23:47.000Z</time>
      </trkpt>
      <trkpt lat="52.140688" lon="-0.545076">
        <ele>41.112426</ele>
        <time>2026-05-24T08:23:51.000Z</time>
      </trkpt>
      <trkpt lat="52.140674" lon="-0.545176">
        <ele>41.24734</ele>
        <time>2026-05-24T08:23:52.000Z</time>
      </trkpt>
      <trkpt lat="52.140696" lon="-0.545278">
        <ele>41.401439</ele>
        <time>2026-05-24T08:23:53.000Z</time>
      </trkpt>
      <trkpt lat="52.140758" lon="-0.54535">
        <ele>41.560058</ele>
        <time>2026-05-24T08:23:54.000Z</time>
      </trkpt>
      <trkpt lat="52.140561" lon="-0.546536">
        <ele>43.018412</ele>
        <time>2026-05-24T08:24:02.000Z</time>
      </trkpt>
      <trkpt lat="52.140448" lon="-0.547005">
        <ele>43.34629</ele>
        <time>2026-05-24T08:24:05.000Z</time>
      </trkpt>
      <trkpt lat="52.140353" lon="-0.547315">
        <ele>43.57245</ele>
        <time>2026-05-24T08:24:07.000Z</time>
      </trkpt>
      <trkpt lat="52.140019" lon="-0.548204">
        <ele>44.25888</ele>
        <time>2026-05-24T08:24:14.000Z</time>
      </trkpt>
      <trkpt lat="52.139723" lon="-0.548835">
        <ele>44.717263</ele>
        <time>2026-05-24T08:24:19.000Z</time>
      </trkpt>
      <trkpt lat="52.139441" lon="-0.549344">
        <ele>44.457385</ele>
        <time>2026-05-24T08:24:24.000Z</time>
      </trkpt>
      <trkpt lat="52.139181" lon="-0.549773">
        <ele>44.218041</ele>
        <time>2026-05-24T08:24:28.000Z</time>
      </trkpt>
      <trkpt lat="52.137393" lon="-0.552328">
        <ele>42.727604</ele>
        <time>2026-05-24T08:24:54.000Z</time>
      </trkpt>
      <trkpt lat="52.137107" lon="-0.552669">
        <ele>42.500623</ele>
        <time>2026-05-24T08:24:58.000Z</time>
      </trkpt>
      <trkpt lat="52.135201" lon="-0.555131">
        <ele>42.16421</ele>
        <time>2026-05-24T08:25:25.000Z</time>
      </trkpt>
      <trkpt lat="52.134502" lon="-0.556032">
        <ele>42.348695</ele>
        <time>2026-05-24T08:25:35.000Z</time>
      </trkpt>
      <trkpt lat="52.132586" lon="-0.558264">
        <ele>43.232054</ele>
        <time>2026-05-24T08:26:01.000Z</time>
      </trkpt>
      <trkpt lat="52.130731" lon="-0.560376">
        <ele>44.601946</ele>
        <time>2026-05-24T08:26:26.000Z</time>
      </trkpt>
      <trkpt lat="52.130223" lon="-0.560964">
        <ele>45.157866</ele>
        <time>2026-05-24T08:26:33.000Z</time>
      </trkpt>
      <trkpt lat="52.129878" lon="-0.561454">
        <ele>45.565546</ele>
        <time>2026-05-24T08:26:38.000Z</time>
      </trkpt>
      <trkpt lat="52.129791" lon="-0.561591">
        <ele>45.793282</ele>
        <time>2026-05-24T08:26:39.000Z</time>
      </trkpt>
      <trkpt lat="52.129485" lon="-0.562119">
        <ele>46.715074</ele>
        <time>2026-05-24T08:26:44.000Z</time>
      </trkpt>
      <trkpt lat="52.129103" lon="-0.562884">
        <ele>47.948116</ele>
        <time>2026-05-24T08:26:51.000Z</time>
      </trkpt>
      <trkpt lat="52.128832" lon="-0.563558">
        <ele>48.942725</ele>
        <time>2026-05-24T08:26:57.000Z</time>
      </trkpt>
      <trkpt lat="52.128727" lon="-0.563807">
        <ele>49.37605</ele>
        <time>2026-05-24T08:26:59.000Z</time>
      </trkpt>
      <trkpt lat="52.128483" lon="-0.564575">
        <ele>51.082158</ele>
        <time>2026-05-24T08:27:05.000Z</time>
      </trkpt>
      <trkpt lat="52.127552" lon="-0.567861">
        <ele>57.966536</ele>
        <time>2026-05-24T08:27:30.000Z</time>
      </trkpt>
      <trkpt lat="52.127555" lon="-0.567866">
        <ele>58.001324</ele>
        <time>2026-05-24T08:27:30.000Z</time>
      </trkpt>
      <trkpt lat="52.127528" lon="-0.567921">
        <ele>58.086833</ele>
        <time>2026-05-24T08:27:30.000Z</time>
      </trkpt>
      <trkpt lat="52.126958" lon="-0.569863">
        <ele>61.519068</ele>
        <time>2026-05-24T08:27:45.000Z</time>
      </trkpt>
      <trkpt lat="52.125738" lon="-0.573663">
        <ele>65.346911</ele>
        <time>2026-05-24T08:28:14.000Z</time>
      </trkpt>
      <trkpt lat="52.125599" lon="-0.574077">
        <ele>65.610639</ele>
        <time>2026-05-24T08:28:17.000Z</time>
      </trkpt>
      <trkpt lat="52.125489" lon="-0.57442">
        <ele>65.400542</ele>
        <time>2026-05-24T08:28:20.000Z</time>
      </trkpt>
      <trkpt lat="52.122035" lon="-0.57044">
        <ele>53.888445</ele>
        <time>2026-05-24T08:29:07.000Z</time>
      </trkpt>
      <trkpt lat="52.121819" lon="-0.569951">
        <ele>53.098812</ele>
        <time>2026-05-24T08:29:11.000Z</time>
      </trkpt>
      <trkpt lat="52.121611" lon="-0.569468">
        <ele>52.343548</ele>
        <time>2026-05-24T08:29:15.000Z</time>
      </trkpt>
      <trkpt lat="52.121448" lon="-0.569077">
        <ele>51.733702</ele>
        <time>2026-05-24T08:29:18.000Z</time>
      </trkpt>
      <trkpt lat="52.12124" lon="-0.568573">
        <ele>52.372014</ele>
        <time>2026-05-24T08:29:22.000Z</time>
      </trkpt>
      <trkpt lat="52.120314" lon="-0.566002">
        <ele>56.550586</ele>
        <time>2026-05-24T08:29:42.000Z</time>
      </trkpt>
      <trkpt lat="52.119279" lon="-0.563383">
        <ele>61.68578</ele>
        <time>2026-05-24T08:30:03.000Z</time>
      </trkpt>
      <trkpt lat="52.119057" lon="-0.562895">
        <ele>61.434132</ele>
        <time>2026-05-24T08:30:07.000Z</time>
      </trkpt>
      <trkpt lat="52.118447" lon="-0.561704">
        <ele>60.703319</ele>
        <time>2026-05-24T08:30:18.000Z</time>
      </trkpt>
      <trkpt lat="52.117086" lon="-0.558478">
        <ele>51.087519</ele>
        <time>2026-05-24T08:30:45.000Z</time>
      </trkpt>
      <trkpt lat="52.116823" lon="-0.557943">
        <ele>49.847137</ele>
        <time>2026-05-24T08:30:50.000Z</time>
      </trkpt>
      <trkpt lat="52.115763" lon="-0.554797">
        <ele>46.107161</ele>
        <time>2026-05-24T08:31:15.000Z</time>
      </trkpt>
      <trkpt lat="52.115697" lon="-0.554567">
        <ele>45.928239</ele>
        <time>2026-05-24T08:31:17.000Z</time>
      </trkpt>
      <trkpt lat="52.115729" lon="-0.554436">
        <ele>45.834738</ele>
        <time>2026-05-24T08:31:18.000Z</time>
      </trkpt>
      <trkpt lat="52.115752" lon="-0.554286">
        <ele>45.736554</ele>
        <time>2026-05-24T08:31:19.000Z</time>
      </trkpt>
      <trkpt lat="52.116802" lon="-0.55311">
        <ele>45.022567</ele>
        <time>2026-05-24T08:31:33.000Z</time>
      </trkpt>
      <trkpt lat="52.116812" lon="-0.553093">
        <ele>45.019149</ele>
        <time>2026-05-24T08:31:33.000Z</time>
      </trkpt>
      <trkpt lat="52.117139" lon="-0.552676">
        <ele>44.788474</ele>
        <time>2026-05-24T08:31:38.000Z</time>
      </trkpt>
      <trkpt lat="52.118664" lon="-0.550298">
        <ele>42.998838</ele>
        <time>2026-05-24T08:32:01.000Z</time>
      </trkpt>
      <trkpt lat="52.119487" lon="-0.548798">
        <ele>42.480633</ele>
        <time>2026-05-24T08:32:15.000Z</time>
      </trkpt>
      <trkpt lat="52.119964" lon="-0.548182">
        <ele>42.277892</ele>
        <time>2026-05-24T08:32:22.000Z</time>
      </trkpt>
      <trkpt lat="52.1203" lon="-0.547544">
        <ele>42.168051</ele>
        <time>2026-05-24T08:32:28.000Z</time>
      </trkpt>
      <trkpt lat="52.12133" lon="-0.545664">
        <ele>41.715411</ele>
        <time>2026-05-24T08:32:45.000Z</time>
      </trkpt>
      <trkpt lat="52.121797" lon="-0.544855">
        <ele>41.408768</ele>
        <time>2026-05-24T08:32:53.000Z</time>
      </trkpt>
      <trkpt lat="52.122119" lon="-0.54439">
        <ele>41.211383</ele>
        <time>2026-05-24T08:32:58.000Z</time>
      </trkpt>
      <trkpt lat="52.12239" lon="-0.544099">
        <ele>41.187431</ele>
        <time>2026-05-24T08:33:02.000Z</time>
      </trkpt>
      <trkpt lat="52.122788" lon="-0.543522">
        <ele>41.352267</ele>
        <time>2026-05-24T08:33:08.000Z</time>
      </trkpt>
      <trkpt lat="52.123012" lon="-0.543263">
        <ele>41.43359</ele>
        <time>2026-05-24T08:33:11.000Z</time>
      </trkpt>
      <trkpt lat="52.123118" lon="-0.543154">
        <ele>41.472393</ele>
        <time>2026-05-24T08:33:12.000Z</time>
      </trkpt>
      <trkpt lat="52.123453" lon="-0.542828">
        <ele>41.590142</ele>
        <time>2026-05-24T08:33:16.000Z</time>
      </trkpt>
      <trkpt lat="52.123691" lon="-0.542516">
        <ele>41.685608</ele>
        <time>2026-05-24T08:33:19.000Z</time>
      </trkpt>
      <trkpt lat="52.123809" lon="-0.542285">
        <ele>41.706593</ele>
        <time>2026-05-24T08:33:21.000Z</time>
      </trkpt>
      <trkpt lat="52.123888" lon="-0.54208">
        <ele>41.720683</ele>
        <time>2026-05-24T08:33:23.000Z</time>
      </trkpt>
      <trkpt lat="52.124047" lon="-0.541379">
        <ele>41.766117</ele>
        <time>2026-05-24T08:33:28.000Z</time>
      </trkpt>
      <trkpt lat="52.124222" lon="-0.540972">
        <ele>41.796616</ele>
        <time>2026-05-24T08:33:31.000Z</time>
      </trkpt>
      <trkpt lat="52.124346" lon="-0.540772">
        <ele>41.813756</ele>
        <time>2026-05-24T08:33:33.000Z</time>
      </trkpt>
      <trkpt lat="52.124536" lon="-0.540577">
        <ele>41.835715</ele>
        <time>2026-05-24T08:33:35.000Z</time>
      </trkpt>
      <trkpt lat="52.124763" lon="-0.540615">
        <ele>41.858879</ele>
        <time>2026-05-24T08:33:38.000Z</time>
      </trkpt>
      <trkpt lat="52.124923" lon="-0.540698">
        <ele>41.871149</ele>
        <time>2026-05-24T08:33:40.000Z</time>
      </trkpt>
      <trkpt lat="52.125173" lon="-0.540902">
        <ele>41.885206</ele>
        <time>2026-05-24T08:33:43.000Z</time>
      </trkpt>
      <trkpt lat="52.125355" lon="-0.540955">
        <ele>41.894824</ele>
        <time>2026-05-24T08:33:45.000Z</time>
      </trkpt>
      <trkpt lat="52.125481" lon="-0.540937">
        <ele>41.901602</ele>
        <time>2026-05-24T08:33:46.000Z</time>
      </trkpt>
      <trkpt lat="52.125581" lon="-0.540884">
        <ele>41.906425</ele>
        <time>2026-05-24T08:33:47.000Z</time>
      </trkpt>
      <trkpt lat="52.125689" lon="-0.540742">
        <ele>41.914239</ele>
        <time>2026-05-24T08:33:49.000Z</time>
      </trkpt>
      <trkpt lat="52.126085" lon="-0.540157">
        <ele>41.94119</ele>
        <time>2026-05-24T08:33:55.000Z</time>
      </trkpt>
      <trkpt lat="52.126155" lon="-0.540063">
        <ele>41.945832</ele>
        <time>2026-05-24T08:33:56.000Z</time>
      </trkpt>
      <trkpt lat="52.126916" lon="-0.539147">
        <ele>42.115806</ele>
        <time>2026-05-24T08:34:07.000Z</time>
      </trkpt>
      <trkpt lat="52.126929" lon="-0.53912">
        <ele>42.123098</ele>
        <time>2026-05-24T08:34:07.000Z</time>
      </trkpt>
      <trkpt lat="52.127386" lon="-0.538546">
        <ele>42.251612</ele>
        <time>2026-05-24T08:34:13.000Z</time>
      </trkpt>
      <trkpt lat="52.128763" lon="-0.536562">
        <ele>42.576726</ele>
        <time>2026-05-24T08:34:33.000Z</time>
      </trkpt>
      <trkpt lat="52.129221" lon="-0.535833">
        <ele>42.630855</ele>
        <time>2026-05-24T08:34:40.000Z</time>
      </trkpt>
      <trkpt lat="52.129913" lon="-0.534606">
        <ele>42.530279</ele>
        <time>2026-05-24T08:34:51.000Z</time>
      </trkpt>
      <trkpt lat="52.130035" lon="-0.534273">
        <ele>42.50764</ele>
        <time>2026-05-24T08:34:54.000Z</time>
      </trkpt>
      <trkpt lat="52.130157" lon="-0.533944">
        <ele>42.482979</ele>
        <time>2026-05-24T08:34:57.000Z</time>
      </trkpt>
      <trkpt lat="52.130353" lon="-0.533313">
        <ele>42.160813</ele>
        <time>2026-05-24T08:35:02.000Z</time>
      </trkpt>
      <trkpt lat="52.130457" lon="-0.532501">
        <ele>41.659454</ele>
        <time>2026-05-24T08:35:08.000Z</time>
      </trkpt>
      <trkpt lat="52.130515" lon="-0.531122">
        <ele>40.815139</ele>
        <time>2026-05-24T08:35:17.000Z</time>
      </trkpt>
      <trkpt lat="52.130624" lon="-0.530522">
        <ele>40.292925</ele>
        <time>2026-05-24T08:35:21.000Z</time>
      </trkpt>
      <trkpt lat="52.13077" lon="-0.529722">
        <ele>39.467331</ele>
        <time>2026-05-24T08:35:27.000Z</time>
      </trkpt>
      <trkpt lat="52.131086" lon="-0.528677">
        <ele>38.346537</ele>
        <time>2026-05-24T08:35:35.000Z</time>
      </trkpt>
      <trkpt lat="52.131128" lon="-0.528234">
        <ele>37.907637</ele>
        <time>2026-05-24T08:35:38.000Z</time>
      </trkpt>
      <trkpt lat="52.131034" lon="-0.52795">
        <ele>37.529464</ele>
        <time>2026-05-24T08:35:40.000Z</time>
      </trkpt>
      <trkpt lat="52.130931" lon="-0.527754">
        <ele>37.222938</ele>
        <time>2026-05-24T08:35:42.000Z</time>
      </trkpt>
      <trkpt lat="52.13071" lon="-0.527548">
        <ele>36.71226</ele>
        <time>2026-05-24T08:35:45.000Z</time>
      </trkpt>
      <trkpt lat="52.130503" lon="-0.527428">
        <ele>36.277604</ele>
        <time>2026-05-24T08:35:47.000Z</time>
      </trkpt>
      <trkpt lat="52.13002" lon="-0.527245">
        <ele>35.286834</ele>
        <time>2026-05-24T08:35:53.000Z</time>
      </trkpt>
      <trkpt lat="52.129299" lon="-0.527116">
        <ele>34.123274</ele>
        <time>2026-05-24T08:36:01.000Z</time>
      </trkpt>
      <trkpt lat="52.129274" lon="-0.527096">
        <ele>34.096857</ele>
        <time>2026-05-24T08:36:01.000Z</time>
      </trkpt>
      <trkpt lat="52.129219" lon="-0.527087">
        <ele>34.070404</ele>
        <time>2026-05-24T08:36:02.000Z</time>
      </trkpt>
      <trkpt lat="52.129218" lon="-0.527095">
        <ele>34.068966</ele>
        <time>2026-05-24T08:36:02.000Z</time>
      </trkpt>
      <trkpt lat="52.127478" lon="-0.526354">
        <ele>33.05285</ele>
        <time>2026-05-24T08:36:22.000Z</time>
      </trkpt>
      <trkpt lat="52.126426" lon="-0.525739">
        <ele>33.160822</ele>
        <time>2026-05-24T08:36:34.000Z</time>
      </trkpt>
      <trkpt lat="52.12533" lon="-0.525115">
        <ele>33.15042</ele>
        <time>2026-05-24T08:36:47.000Z</time>
      </trkpt>
      <trkpt lat="52.124305" lon="-0.524337">
        <ele>32.966262</ele>
        <time>2026-05-24T08:37:00.000Z</time>
      </trkpt>
      <trkpt lat="52.123875" lon="-0.524074">
        <ele>32.475611</ele>
        <time>2026-05-24T08:37:05.000Z</time>
      </trkpt>
      <trkpt lat="52.12351" lon="-0.523903">
        <ele>32.062061</ele>
        <time>2026-05-24T08:37:09.000Z</time>
      </trkpt>
      <trkpt lat="52.123066" lon="-0.523761">
        <ele>31.573771</ele>
        <time>2026-05-24T08:37:14.000Z</time>
      </trkpt>
      <trkpt lat="52.122096" lon="-0.523319">
        <ele>30.9405504722</ele>
        <time>2026-05-24T08:37:25.000Z</time>
      </trkpt>
      <trkpt lat="52.121808" lon="-0.523237">
        <ele>30.7567492349</ele>
        <time>2026-05-24T08:37:28.000Z</time>
      </trkpt>
      <trkpt lat="52.121815" lon="-0.523222">
        <ele>30.7494768039</ele>
        <time>2026-05-24T08:37:28.000Z</time>
      </trkpt>
      <trkpt lat="52.121806" lon="-0.523225">
        <ele>30.7437015383</ele>
        <time>2026-05-24T08:37:28.000Z</time>
      </trkpt>
    </trkseg>
  </trk>
</gpx>

<!--
Performance optimized by W3 Total Cache. Learn more: https://www.boldgrid.com/w3-total-cache/?utm_source=w3tc&utm_medium=footer_comment&utm_campaign=free_plugin

Page Caching using Disk: Enhanced{w3tc_pagecache_reject_reason} 

Served from: www.aquabike.world @ 2026-05-10 05:38:20 by W3 Total Cache
-->